createdAt,value
2019-03-19T00:00:06.049Z,995.79
2019-03-19T00:01:06.043Z,995.79
2019-03-19T00:02:06.061Z,995.87
2019-03-19T00:03:06.025Z,995.81
2019-03-19T00:04:06.002Z,995.80
2019-03-19T00:05:05.991Z,995.76
2019-03-19T00:06:05.976Z,995.81
2019-03-19T00:07:05.967Z,995.77
2019-03-19T00:08:06.007Z,995.73
2019-03-19T00:09:05.946Z,995.74
2019-03-19T00:10:05.940Z,995.76
2019-03-19T00:11:05.925Z,995.69
2019-03-19T00:12:05.919Z,995.71
2019-03-19T00:13:05.903Z,995.71
2019-03-19T00:14:05.904Z,995.71
2019-03-19T00:15:05.900Z,995.75
2019-03-19T00:16:05.872Z,995.78
2019-03-19T00:17:05.866Z,995.73
2019-03-19T00:18:05.854Z,995.82
2019-03-19T00:19:05.855Z,995.85
2019-03-19T00:20:05.876Z,995.77
2019-03-19T00:21:05.822Z,995.74
2019-03-19T00:22:15.660Z,995.79
2019-03-19T00:23:05.803Z,995.80
2019-03-19T00:24:05.791Z,995.79
2019-03-19T00:25:05.818Z,995.80
2019-03-19T00:26:05.771Z,995.76
2019-03-19T00:27:05.759Z,995.76
2019-03-19T00:28:05.741Z,995.85
2019-03-19T00:29:05.738Z,995.80
2019-03-19T00:30:05.733Z,995.84
2019-03-19T00:31:05.719Z,995.84
2019-03-19T00:32:05.697Z,995.90
2019-03-19T00:33:05.737Z,995.85
2019-03-19T00:34:05.679Z,995.84
2019-03-19T00:35:05.677Z,995.80
2019-03-19T00:36:05.668Z,995.82
2019-03-19T00:37:05.683Z,995.80
2019-03-19T00:38:05.636Z,995.81
2019-03-19T00:39:05.629Z,995.77
2019-03-19T00:40:05.613Z,995.77
2019-03-19T00:41:05.621Z,995.78
2019-03-19T00:42:05.599Z,995.78
2019-03-19T00:43:05.622Z,995.83
2019-03-19T00:44:05.576Z,995.80
2019-03-19T00:45:05.565Z,995.80
2019-03-19T00:46:05.677Z,995.76
2019-03-19T00:47:05.543Z,995.83
2019-03-19T00:48:05.538Z,995.84
2019-03-19T00:49:06.783Z,995.91
2019-03-19T00:50:05.510Z,995.87
2019-03-19T00:51:05.502Z,995.84
2019-03-19T00:52:05.526Z,995.85
2019-03-19T00:53:15.829Z,995.83
2019-03-19T00:54:05.470Z,995.89
2019-03-19T00:55:05.463Z,995.86
2019-03-19T00:56:05.461Z,995.94
2019-03-19T00:57:05.441Z,995.91
2019-03-19T00:58:05.438Z,995.94
2019-03-19T00:59:05.422Z,995.95
2019-03-19T01:00:05.404Z,995.93
2019-03-19T01:01:05.401Z,995.92
2019-03-19T01:02:05.394Z,995.89
2019-03-19T01:03:05.417Z,995.91
2019-03-19T01:04:05.363Z,995.93
2019-03-19T01:05:05.354Z,995.88
2019-03-19T01:06:05.340Z,995.97
2019-03-19T01:07:05.344Z,995.98
2019-03-19T01:08:05.326Z,995.98
2019-03-19T01:09:05.713Z,995.98
2019-03-19T01:10:05.300Z,995.99
2019-03-19T01:11:05.295Z,996.00
2019-03-19T01:12:05.281Z,996.08
2019-03-19T01:13:05.276Z,996.03
2019-03-19T01:14:05.256Z,996.01
2019-03-19T01:15:05.258Z,996.03
2019-03-19T01:16:05.234Z,995.98
2019-03-19T01:17:05.229Z,996.02
2019-03-19T01:18:05.220Z,995.96
2019-03-19T01:19:05.249Z,995.96
2019-03-19T01:20:05.196Z,995.96
2019-03-19T01:21:05.191Z,995.96
2019-03-19T01:22:05.173Z,995.99
2019-03-19T01:23:05.165Z,996.02
2019-03-19T01:24:16.179Z,996.03
2019-03-19T01:25:05.151Z,995.98
2019-03-19T01:26:05.146Z,996.01
2019-03-19T01:27:05.124Z,996.02
2019-03-19T01:28:05.116Z,996.06
2019-03-19T01:29:05.104Z,996.02
2019-03-19T01:30:05.089Z,996.09
2019-03-19T01:31:05.094Z,996.09
2019-03-19T01:32:05.069Z,996.08
2019-03-19T01:33:05.056Z,996.08
2019-03-19T01:34:05.050Z,996.04
2019-03-19T01:35:05.076Z,996.07
2019-03-19T01:36:05.038Z,996.01
2019-03-19T01:37:05.021Z,996.04
2019-03-19T01:38:05.008Z,996.03
2019-03-19T01:39:04.993Z,996.01
2019-03-19T01:40:04.982Z,996.06
2019-03-19T01:41:05.013Z,996.04
2019-03-19T01:42:04.969Z,996.02
2019-03-19T01:43:04.954Z,995.98
2019-03-19T01:44:04.941Z,996.01
2019-03-19T01:45:04.933Z,996.03
2019-03-19T01:46:04.923Z,996.08
2019-03-19T01:47:04.924Z,996.10
2019-03-19T01:48:04.939Z,996.10
2019-03-19T01:49:04.895Z,996.16
2019-03-19T01:50:04.878Z,996.15
2019-03-19T01:51:04.867Z,996.10
2019-03-19T01:52:05.651Z,996.08
2019-03-19T01:53:04.846Z,996.14
2019-03-19T01:54:04.861Z,996.06
2019-03-19T01:55:14.902Z,996.08
2019-03-19T01:56:05.684Z,996.08
2019-03-19T01:57:04.812Z,996.11
2019-03-19T01:58:04.814Z,996.07
2019-03-19T01:59:04.794Z,996.10
2019-03-19T02:00:04.772Z,996.08
2019-03-19T02:01:04.766Z,996.13
2019-03-19T02:02:04.755Z,996.11
2019-03-19T02:03:04.740Z,996.11
2019-03-19T02:04:04.752Z,996.08
2019-03-19T02:05:04.724Z,996.11
2019-03-19T02:06:04.712Z,996.10
2019-03-19T02:07:04.700Z,996.08
2019-03-19T02:08:04.685Z,996.09
2019-03-19T02:09:04.677Z,996.04
2019-03-19T02:10:04.707Z,996.08
2019-03-19T02:11:04.655Z,996.09
2019-03-19T02:12:04.649Z,996.06
2019-03-19T02:13:04.651Z,996.04
2019-03-19T02:14:04.658Z,996.05
2019-03-19T02:15:04.619Z,996.04
2019-03-19T02:16:04.606Z,996.06
2019-03-19T02:17:04.614Z,996.07
2019-03-19T02:18:04.588Z,996.07
2019-03-19T02:19:04.583Z,996.09
2019-03-19T02:20:04.579Z,996.13
2019-03-19T02:21:04.554Z,996.13
2019-03-19T02:22:04.544Z,996.09
2019-03-19T02:23:04.831Z,996.07
2019-03-19T02:24:04.516Z,996.08
2019-03-19T02:25:04.527Z,996.09
2019-03-19T02:26:16.850Z,996.08
2019-03-19T02:27:04.494Z,996.07
2019-03-19T02:28:04.483Z,996.08
2019-03-19T02:29:04.473Z,996.08
2019-03-19T02:30:04.461Z,996.13
2019-03-19T02:31:04.449Z,996.16
2019-03-19T02:32:04.445Z,996.18
2019-03-19T02:33:04.423Z,996.21
2019-03-19T02:34:04.421Z,996.24
2019-03-19T02:35:04.408Z,996.18
2019-03-19T02:36:04.391Z,996.17
2019-03-19T02:37:04.464Z,996.16
2019-03-19T02:38:04.376Z,996.17
2019-03-19T02:39:04.367Z,996.18
2019-03-19T02:40:04.350Z,996.16
2019-03-19T02:41:04.346Z,996.12
2019-03-19T02:42:04.332Z,996.15
2019-03-19T02:43:04.325Z,996.14
2019-03-19T02:44:04.311Z,996.12
2019-03-19T02:45:04.320Z,996.14
2019-03-19T02:46:04.291Z,996.18
2019-03-19T02:47:04.276Z,996.17
2019-03-19T02:48:04.306Z,996.17
2019-03-19T02:49:04.254Z,996.21
2019-03-19T02:50:04.253Z,996.14
2019-03-19T02:51:04.242Z,996.15
2019-03-19T02:52:04.232Z,996.18
2019-03-19T02:53:04.212Z,996.14
2019-03-19T02:54:04.243Z,996.10
2019-03-19T02:55:04.196Z,996.10
2019-03-19T02:56:04.181Z,996.12
2019-03-19T02:57:14.490Z,996.10
2019-03-19T02:58:04.163Z,996.05
2019-03-19T02:59:04.156Z,996.05
2019-03-19T03:00:04.175Z,996.04
2019-03-19T03:01:04.135Z,996.03
2019-03-19T03:02:04.124Z,996.07
2019-03-19T03:03:04.118Z,996.04
2019-03-19T03:04:04.102Z,996.07
2019-03-19T03:05:04.089Z,996.07
2019-03-19T03:06:04.095Z,996.10
2019-03-19T03:07:04.068Z,996.06
2019-03-19T03:08:04.059Z,996.06
2019-03-19T03:09:04.106Z,996.07
2019-03-19T03:10:04.040Z,996.03
2019-03-19T03:11:04.072Z,996.00
2019-03-19T03:12:04.012Z,996.04
2019-03-19T03:13:04.000Z,996.03
2019-03-19T03:14:03.997Z,995.95
2019-03-19T03:15:03.984Z,995.97
2019-03-19T03:16:03.970Z,995.91
2019-03-19T03:17:03.981Z,995.94
2019-03-19T03:18:03.959Z,995.92
2019-03-19T03:19:03.947Z,995.97
2019-03-19T03:20:03.930Z,995.93
2019-03-19T03:21:03.929Z,996.01
2019-03-19T03:22:03.952Z,996.00
2019-03-19T03:23:03.908Z,996.02
2019-03-19T03:24:03.894Z,996.02
2019-03-19T03:25:03.881Z,996.03
2019-03-19T03:26:03.875Z,996.05
2019-03-19T03:27:03.867Z,996.13
2019-03-19T03:28:14.327Z,996.15
2019-03-19T03:29:03.835Z,996.10
2019-03-19T03:30:03.833Z,996.13
2019-03-19T03:31:03.825Z,996.16
2019-03-19T03:32:03.804Z,996.08
2019-03-19T03:33:04.034Z,996.08
2019-03-19T03:34:03.818Z,996.12
2019-03-19T03:35:03.781Z,996.08
2019-03-19T03:36:03.766Z,996.08
2019-03-19T03:37:03.753Z,996.06
2019-03-19T03:38:03.742Z,996.08
2019-03-19T03:39:03.729Z,996.04
2019-03-19T03:40:03.740Z,996.04
2019-03-19T03:41:03.712Z,996.05
2019-03-19T03:42:03.718Z,996.02
2019-03-19T03:43:03.690Z,996.05
2019-03-19T03:44:03.683Z,996.03
2019-03-19T03:45:03.702Z,995.99
2019-03-19T03:46:03.672Z,996.06
2019-03-19T03:47:03.651Z,996.01
2019-03-19T03:48:03.647Z,996.04
2019-03-19T03:49:03.633Z,996.12
2019-03-19T03:50:03.621Z,996.06
2019-03-19T03:51:03.647Z,996.10
2019-03-19T03:52:03.612Z,996.14
2019-03-19T03:53:03.603Z,996.13
2019-03-19T03:54:03.586Z,996.14
2019-03-19T03:55:03.560Z,996.12
2019-03-19T03:56:03.556Z,996.17
2019-03-19T03:57:03.563Z,996.09
2019-03-19T03:58:03.533Z,996.13
2019-03-19T03:59:14.597Z,996.11
2019-03-19T04:00:03.506Z,996.10
2019-03-19T04:01:03.503Z,996.11
2019-03-19T04:02:03.495Z,996.15
2019-03-19T04:03:03.517Z,996.13
2019-03-19T04:04:03.627Z,996.18
2019-03-19T04:05:03.457Z,996.18
2019-03-19T04:06:03.450Z,996.19
2019-03-19T04:07:03.449Z,996.17
2019-03-19T04:08:03.423Z,996.21
2019-03-19T04:09:03.425Z,996.21
2019-03-19T04:10:03.401Z,996.22
2019-03-19T04:11:03.523Z,996.24
2019-03-19T04:12:03.411Z,996.26
2019-03-19T04:13:03.420Z,996.17
2019-03-19T04:14:03.372Z,996.18
2019-03-19T04:15:03.353Z,996.19
2019-03-19T04:16:03.349Z,996.23
2019-03-19T04:17:03.329Z,996.23
2019-03-19T04:18:03.326Z,996.21
2019-03-19T04:19:03.344Z,996.18
2019-03-19T04:20:03.308Z,996.21
2019-03-19T04:21:03.287Z,996.24
2019-03-19T04:22:03.308Z,996.20
2019-03-19T04:23:03.272Z,996.13
2019-03-19T04:24:03.265Z,996.16
2019-03-19T04:25:03.308Z,996.19
2019-03-19T04:26:03.236Z,996.19
2019-03-19T04:27:15.407Z,996.23
2019-03-19T04:28:04.220Z,996.19
2019-03-19T04:29:03.210Z,996.22
2019-03-19T04:30:13.839Z,996.19
2019-03-19T04:31:03.180Z,996.19
2019-03-19T04:32:03.175Z,996.21
2019-03-19T04:33:03.161Z,996.27
2019-03-19T04:34:03.155Z,996.22
2019-03-19T04:35:03.142Z,996.29
2019-03-19T04:36:03.143Z,996.19
2019-03-19T04:37:03.123Z,996.23
2019-03-19T04:38:03.117Z,996.25
2019-03-19T04:39:03.102Z,996.22
2019-03-19T04:40:03.094Z,996.32
2019-03-19T04:41:03.101Z,996.31
2019-03-19T04:42:03.071Z,996.28
2019-03-19T04:43:03.065Z,996.32
2019-03-19T04:44:03.047Z,996.31
2019-03-19T04:45:03.033Z,996.32
2019-03-19T04:46:03.022Z,996.33
2019-03-19T04:47:03.057Z,996.29
2019-03-19T04:48:03.753Z,996.34
2019-03-19T04:49:02.996Z,996.32
2019-03-19T04:50:02.994Z,996.35
2019-03-19T04:51:02.974Z,996.32
2019-03-19T04:52:02.959Z,996.35
2019-03-19T04:53:02.995Z,996.35
2019-03-19T04:54:02.943Z,996.35
2019-03-19T04:55:02.929Z,996.36
2019-03-19T04:56:02.928Z,996.39
2019-03-19T04:57:02.913Z,996.39
2019-03-19T04:58:02.903Z,996.40
2019-03-19T04:59:02.900Z,996.38
2019-03-19T05:00:02.876Z,996.38
2019-03-19T05:01:13.290Z,996.48
2019-03-19T05:02:02.854Z,996.40
2019-03-19T05:03:02.853Z,996.43
2019-03-19T05:04:02.846Z,996.37
2019-03-19T05:05:02.830Z,996.35
2019-03-19T05:06:02.829Z,996.37
2019-03-19T05:07:02.804Z,996.38
2019-03-19T05:08:02.796Z,996.29
2019-03-19T05:09:02.830Z,996.28
2019-03-19T05:10:02.847Z,996.28
2019-03-19T05:11:02.767Z,996.29
2019-03-19T05:12:02.756Z,996.30
2019-03-19T05:13:02.743Z,996.30
2019-03-19T05:14:02.731Z,996.33
2019-03-19T05:15:02.767Z,996.33
2019-03-19T05:16:02.709Z,996.30
2019-03-19T05:17:02.699Z,996.33
2019-03-19T05:18:02.693Z,996.36
2019-03-19T05:19:02.676Z,996.35
2019-03-19T05:20:02.669Z,996.40
2019-03-19T05:21:02.692Z,996.38
2019-03-19T05:22:02.651Z,996.41
2019-03-19T05:23:02.640Z,996.39
2019-03-19T05:24:02.625Z,996.41
2019-03-19T05:25:02.616Z,996.36
2019-03-19T05:26:02.611Z,996.40
2019-03-19T05:27:02.603Z,996.32
2019-03-19T05:28:02.583Z,996.38
2019-03-19T05:29:02.573Z,996.36
2019-03-19T05:30:02.567Z,996.40
2019-03-19T05:31:02.596Z,996.41
2019-03-19T05:32:13.051Z,996.36
2019-03-19T05:33:03.374Z,996.42
2019-03-19T05:34:02.518Z,996.39
2019-03-19T05:35:02.515Z,996.42
2019-03-19T05:36:02.497Z,996.39
2019-03-19T05:37:02.530Z,996.49
2019-03-19T05:38:02.476Z,996.42
2019-03-19T05:39:02.477Z,996.45
2019-03-19T05:40:02.461Z,996.44
2019-03-19T05:41:02.448Z,996.44
2019-03-19T05:42:02.446Z,996.45
2019-03-19T05:43:02.467Z,996.48
2019-03-19T05:44:02.413Z,996.45
2019-03-19T05:45:02.406Z,996.44
2019-03-19T05:46:02.396Z,996.46
2019-03-19T05:47:02.398Z,996.52
2019-03-19T05:48:02.373Z,996.49
2019-03-19T05:49:02.370Z,996.52
2019-03-19T05:50:02.351Z,996.45
2019-03-19T05:51:02.342Z,996.48
2019-03-19T05:52:02.334Z,996.52
2019-03-19T05:53:02.325Z,996.50
2019-03-19T05:54:02.318Z,996.51
2019-03-19T05:55:02.310Z,996.53
2019-03-19T05:56:02.289Z,996.48
2019-03-19T05:57:02.278Z,996.46
2019-03-19T05:58:02.269Z,996.55
2019-03-19T05:59:02.279Z,996.51
2019-03-19T06:00:02.257Z,996.51
2019-03-19T06:01:02.233Z,996.49
2019-03-19T06:02:02.238Z,996.50
2019-03-19T06:03:14.106Z,996.52
2019-03-19T06:04:02.201Z,996.55
2019-03-19T06:05:02.232Z,996.53
2019-03-19T06:06:02.199Z,996.56
2019-03-19T06:07:02.180Z,996.55
2019-03-19T06:08:02.165Z,996.52
2019-03-19T06:09:02.158Z,996.56
2019-03-19T06:10:02.148Z,996.56
2019-03-19T06:11:02.136Z,996.52
2019-03-19T06:12:02.123Z,996.53
2019-03-19T06:13:02.119Z,996.57
2019-03-19T06:14:02.112Z,996.55
2019-03-19T06:15:02.104Z,996.53
2019-03-19T06:16:02.445Z,996.57
2019-03-19T06:17:02.080Z,996.60
2019-03-19T06:18:02.062Z,996.59
2019-03-19T06:19:02.044Z,996.58
2019-03-19T06:20:02.038Z,996.57
2019-03-19T06:21:02.029Z,996.66
2019-03-19T06:22:02.054Z,996.66
2019-03-19T06:23:02.012Z,996.63
2019-03-19T06:24:02.008Z,996.64
2019-03-19T06:25:01.991Z,996.63
2019-03-19T06:26:01.994Z,996.69
2019-03-19T06:27:01.965Z,996.67
2019-03-19T06:28:01.995Z,996.69
2019-03-19T06:29:01.941Z,996.68
2019-03-19T06:30:01.935Z,996.73
2019-03-19T06:31:01.919Z,996.71
2019-03-19T06:32:01.911Z,996.72
2019-03-19T06:33:01.900Z,996.73
2019-03-19T06:34:12.952Z,996.71
2019-03-19T06:35:01.884Z,996.71
2019-03-19T06:36:01.899Z,996.70
2019-03-19T06:37:01.861Z,996.66
2019-03-19T06:38:01.845Z,996.69
2019-03-19T06:39:01.914Z,996.74
2019-03-19T06:40:01.837Z,996.69
2019-03-19T06:41:01.817Z,996.75
2019-03-19T06:42:01.801Z,996.75
2019-03-19T06:43:01.794Z,996.73
2019-03-19T06:44:01.785Z,996.76
2019-03-19T06:45:01.827Z,996.78
2019-03-19T06:46:01.761Z,996.74
2019-03-19T06:47:01.747Z,996.76
2019-03-19T06:48:01.749Z,996.74
2019-03-19T06:49:01.723Z,996.81
2019-03-19T06:50:01.720Z,996.74
2019-03-19T06:51:01.734Z,996.78
2019-03-19T06:52:01.694Z,996.80
2019-03-19T06:53:01.687Z,996.84
2019-03-19T06:54:01.681Z,996.85
2019-03-19T06:55:01.675Z,996.89
2019-03-19T06:56:01.695Z,996.88
2019-03-19T06:57:01.639Z,996.92
2019-03-19T06:58:10.609Z,996.90
2019-03-19T06:59:02.621Z,996.85
2019-03-19T07:00:01.650Z,996.87
2019-03-19T07:01:01.598Z,996.81
2019-03-19T07:02:01.635Z,996.85
2019-03-19T07:03:01.588Z,996.87
2019-03-19T07:04:01.574Z,996.88
2019-03-19T07:05:11.493Z,996.85
2019-03-19T07:06:01.547Z,996.84
2019-03-19T07:07:01.532Z,996.87
2019-03-19T07:08:01.962Z,996.90
2019-03-19T07:09:01.522Z,996.86
2019-03-19T07:10:01.536Z,996.90
2019-03-19T07:11:01.512Z,996.90
2019-03-19T07:12:09.010Z,996.91
2019-03-19T07:13:01.476Z,996.88
2019-03-19T07:14:01.461Z,996.91
2019-03-19T07:15:01.455Z,996.87
2019-03-19T07:16:01.491Z,996.90
2019-03-19T07:17:01.432Z,996.86
2019-03-19T07:18:01.431Z,996.83
2019-03-19T07:19:01.441Z,996.82
2019-03-19T07:20:01.397Z,996.86
2019-03-19T07:21:01.408Z,996.78
2019-03-19T07:22:01.384Z,996.83
2019-03-19T07:23:01.436Z,996.82
2019-03-19T07:24:01.356Z,996.83
2019-03-19T07:25:01.345Z,996.82
2019-03-19T07:26:01.330Z,996.82
2019-03-19T07:27:01.332Z,996.84
2019-03-19T07:28:01.311Z,996.82
2019-03-19T07:29:01.322Z,996.85
2019-03-19T07:30:01.289Z,996.85
2019-03-19T07:31:01.280Z,996.85
2019-03-19T07:32:01.267Z,996.87
2019-03-19T07:33:01.261Z,996.89
2019-03-19T07:34:01.246Z,996.91
2019-03-19T07:35:01.250Z,996.91
2019-03-19T07:36:01.234Z,996.88
2019-03-19T07:37:01.213Z,996.92
2019-03-19T07:38:01.204Z,996.90
2019-03-19T07:39:01.198Z,996.90
2019-03-19T07:40:01.257Z,996.97
2019-03-19T07:41:01.181Z,997.02
2019-03-19T07:42:01.167Z,997.00
2019-03-19T07:43:12.118Z,996.99
2019-03-19T07:44:01.145Z,997.04
2019-03-19T07:45:01.133Z,996.98
2019-03-19T07:46:01.127Z,997.08
2019-03-19T07:47:01.113Z,997.08
2019-03-19T07:48:01.093Z,997.00
2019-03-19T07:49:01.087Z,997.04
2019-03-19T07:50:01.081Z,997.06
2019-03-19T07:51:01.108Z,997.05
2019-03-19T07:52:01.067Z,997.05
2019-03-19T07:53:01.045Z,997.09
2019-03-19T07:54:01.034Z,997.07
2019-03-19T07:55:01.019Z,997.07
2019-03-19T07:56:01.012Z,997.05
2019-03-19T07:57:01.054Z,997.10
2019-03-19T07:58:00.998Z,997.09
2019-03-19T07:59:00.996Z,997.09
2019-03-19T08:00:00.973Z,997.15
2019-03-19T08:01:00.962Z,997.08
2019-03-19T08:02:00.956Z,997.10
2019-03-19T08:03:00.978Z,997.13
2019-03-19T08:04:00.930Z,997.13
2019-03-19T08:05:00.921Z,997.16
2019-03-19T08:06:00.910Z,997.14
2019-03-19T08:07:00.895Z,997.24
2019-03-19T08:08:00.881Z,997.22
2019-03-19T08:09:00.934Z,997.19
2019-03-19T08:10:00.867Z,997.23
2019-03-19T08:11:00.896Z,997.23
2019-03-19T08:12:00.881Z,997.23
2019-03-19T08:13:00.827Z,997.27
2019-03-19T08:14:12.029Z,997.25
2019-03-19T08:15:00.811Z,997.24
2019-03-19T08:16:00.800Z,997.18
2019-03-19T08:17:00.792Z,997.19
2019-03-19T08:18:00.777Z,997.16
2019-03-19T08:19:00.770Z,997.21
2019-03-19T08:20:00.784Z,997.23
2019-03-19T08:21:00.754Z,997.23
2019-03-19T08:22:00.739Z,997.23
2019-03-19T08:23:00.738Z,997.23
2019-03-19T08:24:00.711Z,997.26
2019-03-19T08:25:00.698Z,997.29
2019-03-19T08:26:00.721Z,997.24
2019-03-19T08:27:00.685Z,997.25
2019-03-19T08:28:00.674Z,997.23
2019-03-19T08:29:00.658Z,997.23
2019-03-19T08:30:00.697Z,997.28
2019-03-19T08:31:00.665Z,997.31
2019-03-19T08:32:00.630Z,997.40
2019-03-19T08:33:00.618Z,997.32
2019-03-19T08:34:00.615Z,997.37
2019-03-19T08:35:00.594Z,997.35
2019-03-19T08:36:08.989Z,997.36
2019-03-19T08:37:01.572Z,997.35
2019-03-19T08:38:00.558Z,997.42
2019-03-19T08:39:00.566Z,997.42
2019-03-19T08:40:00.537Z,997.46
2019-03-19T08:41:00.532Z,997.41
2019-03-19T08:42:00.525Z,997.44
2019-03-19T08:43:00.511Z,997.46
2019-03-19T08:44:00.494Z,997.40
2019-03-19T08:45:10.880Z,997.40
2019-03-19T08:46:00.480Z,997.46
2019-03-19T08:47:00.483Z,997.44
2019-03-19T08:48:00.459Z,997.45
2019-03-19T08:49:00.443Z,997.46
2019-03-19T08:50:00.433Z,997.38
2019-03-19T08:51:00.424Z,997.47
2019-03-19T08:52:00.426Z,997.44
2019-03-19T08:53:00.439Z,997.45
2019-03-19T08:54:00.396Z,997.39
2019-03-19T08:55:08.886Z,997.45
2019-03-19T08:56:01.149Z,997.45
2019-03-19T08:57:00.369Z,997.44
2019-03-19T08:58:00.354Z,997.51
2019-03-19T08:59:05.891Z,997.48
2019-03-19T09:01:10.037Z,997.64
2019-03-19T09:02:10.015Z,997.56
2019-03-19T09:03:10.025Z,997.54
2019-03-19T09:04:09.982Z,997.56
2019-03-19T09:05:09.996Z,997.63
2019-03-19T09:06:09.961Z,997.56
2019-03-19T09:07:09.975Z,997.58
2019-03-19T09:08:10.110Z,997.63
2019-03-19T09:09:09.938Z,997.63
2019-03-19T09:10:10.000Z,997.70
2019-03-19T09:11:09.990Z,997.66
2019-03-19T09:12:09.905Z,997.65
2019-03-19T09:13:09.885Z,997.59
2019-03-19T09:14:09.877Z,997.62
2019-03-19T09:15:09.864Z,997.62
2019-03-19T09:16:09.934Z,997.67
2019-03-19T09:17:09.846Z,997.59
2019-03-19T09:18:09.840Z,997.62
2019-03-19T09:19:09.824Z,997.64
2019-03-19T09:20:09.816Z,997.62
2019-03-19T09:21:09.852Z,997.68
2019-03-19T09:22:09.786Z,997.68
2019-03-19T09:23:09.804Z,997.75
2019-03-19T09:24:09.779Z,997.79
2019-03-19T09:25:09.753Z,997.78
2019-03-19T09:26:09.739Z,997.76
2019-03-19T09:27:09.751Z,997.85
2019-03-19T09:28:09.779Z,997.82
2019-03-19T09:29:16.802Z,997.81
2019-03-19T09:30:10.703Z,997.81
2019-03-19T09:31:16.675Z,997.72
2019-03-19T09:32:09.696Z,997.70
2019-03-19T09:33:09.682Z,997.72
2019-03-19T09:34:09.651Z,997.73
2019-03-19T09:35:09.652Z,997.70
2019-03-19T09:36:09.633Z,997.78
2019-03-19T09:37:09.636Z,997.76
2019-03-19T09:38:09.621Z,997.77
2019-03-19T09:39:09.606Z,997.80
2019-03-19T09:40:09.587Z,997.82
2019-03-19T09:41:09.580Z,997.84
2019-03-19T09:42:09.576Z,997.82
2019-03-19T09:43:09.571Z,997.91
2019-03-19T09:44:09.586Z,997.90
2019-03-19T09:45:09.551Z,997.87
2019-03-19T09:46:09.531Z,997.84
2019-03-19T09:47:09.576Z,997.87
2019-03-19T09:48:09.503Z,997.87
2019-03-19T09:49:09.495Z,997.87
2019-03-19T09:50:09.527Z,997.88
2019-03-19T09:51:09.470Z,997.92
2019-03-19T09:52:09.460Z,997.96
2019-03-19T09:53:09.453Z,997.97
2019-03-19T09:54:09.444Z,997.99
2019-03-19T09:55:09.432Z,998.00
2019-03-19T09:56:09.488Z,998.01
2019-03-19T09:57:09.409Z,998.00
2019-03-19T09:58:09.396Z,998.01
2019-03-19T09:59:09.399Z,997.97
2019-03-19T10:00:09.369Z,998.06
2019-03-19T10:01:09.366Z,998.11
2019-03-19T10:02:20.849Z,998.09
2019-03-19T10:03:09.345Z,998.10
2019-03-19T10:04:16.321Z,998.09
2019-03-19T10:05:09.323Z,998.15
2019-03-19T10:06:14.295Z,998.09
2019-03-19T10:07:10.296Z,998.11
2019-03-19T10:08:09.298Z,998.13
2019-03-19T10:09:09.274Z,998.23
2019-03-19T10:10:09.264Z,998.19
2019-03-19T10:11:09.253Z,998.16
2019-03-19T10:12:09.248Z,998.17
2019-03-19T10:13:09.250Z,998.18
2019-03-19T10:14:09.250Z,998.18
2019-03-19T10:15:09.236Z,998.22
2019-03-19T10:16:09.199Z,998.22
2019-03-19T10:17:09.210Z,998.27
2019-03-19T10:18:09.214Z,998.21
2019-03-19T10:19:09.178Z,998.24
2019-03-19T10:20:09.160Z,998.29
2019-03-19T10:21:09.184Z,998.31
2019-03-19T10:22:09.137Z,998.31
2019-03-19T10:23:09.143Z,998.29
2019-03-19T10:24:09.180Z,998.33
2019-03-19T10:25:09.102Z,998.34
2019-03-19T10:26:09.092Z,998.34
2019-03-19T10:27:09.076Z,998.36
2019-03-19T10:28:09.079Z,998.40
2019-03-19T10:29:09.069Z,998.38
2019-03-19T10:30:09.090Z,998.44
2019-03-19T10:31:09.038Z,998.45
2019-03-19T10:32:09.029Z,998.41
2019-03-19T10:33:09.024Z,998.43
2019-03-19T10:34:09.032Z,998.40
2019-03-19T10:35:19.872Z,998.45
2019-03-19T10:36:08.983Z,998.43
2019-03-19T10:37:08.973Z,998.46
2019-03-19T10:38:08.956Z,998.50
2019-03-19T10:39:09.301Z,998.45
2019-03-19T10:40:08.946Z,998.46
2019-03-19T10:41:08.974Z,998.52
2019-03-19T10:42:08.913Z,998.56
2019-03-19T10:43:08.906Z,998.52
2019-03-19T10:44:08.898Z,998.56
2019-03-19T10:45:08.883Z,998.58
2019-03-19T10:46:08.902Z,998.57
2019-03-19T10:47:08.871Z,998.57
2019-03-19T10:48:08.873Z,998.61
2019-03-19T10:49:08.845Z,998.54
2019-03-19T10:50:08.826Z,998.61
2019-03-19T10:51:08.823Z,998.52
2019-03-19T10:52:08.847Z,998.60
2019-03-19T10:53:08.792Z,998.58
2019-03-19T10:54:08.799Z,998.58
2019-03-19T10:55:08.774Z,998.54
2019-03-19T10:56:08.766Z,998.50
2019-03-19T10:57:08.750Z,998.50
2019-03-19T10:58:11.226Z,998.50
2019-03-19T10:59:08.730Z,998.54
2019-03-19T11:00:08.732Z,998.49
2019-03-19T11:01:08.708Z,998.52
2019-03-19T11:02:08.716Z,998.52
2019-03-19T11:03:08.693Z,998.48
2019-03-19T11:04:08.716Z,998.48
2019-03-19T11:05:08.664Z,998.50
2019-03-19T11:06:19.276Z,998.55
2019-03-19T11:07:08.657Z,998.54
2019-03-19T11:08:08.632Z,998.54
2019-03-19T11:09:08.624Z,998.58
2019-03-19T11:10:08.631Z,998.55
2019-03-19T11:11:08.597Z,998.61
2019-03-19T11:12:08.597Z,998.62
2019-03-19T11:13:08.578Z,998.63
2019-03-19T11:14:08.590Z,998.66
2019-03-19T11:15:08.573Z,998.71
2019-03-19T11:16:08.545Z,998.71
2019-03-19T11:17:08.534Z,998.76
2019-03-19T11:18:08.520Z,998.79
2019-03-19T11:19:08.518Z,998.76
2019-03-19T11:20:08.964Z,998.73
2019-03-19T11:21:08.494Z,998.78
2019-03-19T11:22:08.477Z,998.79
2019-03-19T11:23:08.473Z,998.82
2019-03-19T11:24:08.462Z,998.78
2019-03-19T11:25:15.940Z,998.81
2019-03-19T11:26:08.441Z,998.81
2019-03-19T11:27:08.423Z,998.82
2019-03-19T11:28:08.450Z,998.82
2019-03-19T11:29:08.409Z,998.85
2019-03-19T11:30:08.393Z,998.83
2019-03-19T11:31:08.394Z,998.88
2019-03-19T11:32:08.389Z,998.84
2019-03-19T11:33:08.373Z,998.85
2019-03-19T11:34:08.348Z,998.91
2019-03-19T11:35:08.343Z,998.87
2019-03-19T11:36:08.326Z,998.93
2019-03-19T11:37:08.320Z,998.93
2019-03-19T11:38:08.328Z,998.89
2019-03-19T11:39:08.370Z,998.89
2019-03-19T11:40:08.299Z,998.93
2019-03-19T11:41:08.276Z,998.97
2019-03-19T11:42:08.261Z,998.97
2019-03-19T11:43:08.257Z,999.00
2019-03-19T11:44:08.278Z,999.01
2019-03-19T11:45:08.235Z,999.01
2019-03-19T11:46:08.222Z,999.05
2019-03-19T11:47:08.207Z,999.08
2019-03-19T11:48:08.197Z,999.09
2019-03-19T11:49:08.189Z,998.99
2019-03-19T11:50:08.183Z,999.01
2019-03-19T11:51:08.171Z,999.06
2019-03-19T11:52:08.154Z,999.03
2019-03-19T11:53:08.142Z,999.07
2019-03-19T11:54:08.139Z,999.01
2019-03-19T11:55:08.143Z,999.02
2019-03-19T11:56:18.097Z,999.05
2019-03-19T11:57:08.096Z,999.00
2019-03-19T11:58:08.087Z,999.07
2019-03-19T11:59:08.077Z,999.04
2019-03-19T12:00:11.558Z,999.06
2019-03-19T12:01:08.062Z,999.05
2019-03-19T12:02:08.050Z,999.10
2019-03-19T12:03:15.518Z,999.09
2019-03-19T12:04:09.026Z,999.07
2019-03-19T12:05:08.011Z,999.11
2019-03-19T12:06:08.039Z,999.11
2019-03-19T12:07:07.995Z,999.12
2019-03-19T12:08:08.002Z,999.13
2019-03-19T12:09:07.964Z,999.12
2019-03-19T12:10:07.967Z,999.13
2019-03-19T12:11:07.948Z,999.13
2019-03-19T12:12:07.950Z,999.15
2019-03-19T12:13:07.924Z,999.21
2019-03-19T12:14:07.922Z,999.18
2019-03-19T12:15:07.912Z,999.16
2019-03-19T12:16:07.894Z,999.20
2019-03-19T12:17:15.514Z,999.24
2019-03-19T12:18:07.874Z,999.26
2019-03-19T12:19:07.859Z,999.23
2019-03-19T12:20:07.850Z,999.28
2019-03-19T12:21:07.836Z,999.20
2019-03-19T12:22:07.825Z,999.21
2019-03-19T12:23:07.859Z,999.27
2019-03-19T12:24:07.807Z,999.28
2019-03-19T12:25:07.790Z,999.28
2019-03-19T12:26:07.791Z,999.24
2019-03-19T12:27:07.781Z,999.24
2019-03-19T12:28:07.767Z,999.22
2019-03-19T12:29:07.759Z,999.28